Time;durP1;ratioP1;P1;durP2;ratioP2;P2;SDS_P1;SDS_P2;PMS_P1;PMS_P2;Temp;Humidity;BMP_temperature;BMP_pressure;BME280_temperature;BME280_humidity;BME280_pressure;Samples;Min_cycle;Max_cycle;Signal;HPM_P1;HPM_P2
2022/12/09 00:01:13;;;;;;;129.52;57.95;;;;;;;;;;5037546;28;21077;-77
2022/12/09 00:03:39;;;;;;;377.80;114.30;;;;;;;;;;5038200;28;20026;-78
2022/12/09 00:06:07;;;;;;;243.07;114.85;;;;;;;;;;5028014;28;20035;-75
2022/12/09 00:08:32;;;;;;;357.67;161.13;;;;;;;;;;5026613;28;20044;-75
2022/12/09 00:10:58;;;;;;;548.13;161.07;;;;;;;;;;5036854;28;20045;-75
2022/12/09 00:13:23;;;;;;;227.27;99.45;;;;;;;;;;5025219;28;20063;-75
2022/12/09 00:15:48;;;;;;;140.52;73.70;;;;;;;;;;5037006;28;20091;-74
2022/12/09 00:18:14;;;;;;;288.63;107.63;;;;;;;;;;5034645;28;20036;-77
2022/12/09 00:20:39;;;;;;;161.43;59.85;;;;;;;;;;5033343;28;20462;-77
2022/12/09 00:23:05;;;;;;;80.68;45.90;;;;;;;;;;5027148;28;20028;-77
2022/12/09 00:25:30;;;;;;;123.63;58.85;;;;;;;;;;5037485;28;20029;-76
2022/12/09 00:27:56;;;;;;;105.25;42.97;;;;;;;;;;5037819;28;20033;-75
2022/12/09 00:30:21;;;;;;;242.43;95.30;;;;;;;;;;5035912;28;20025;-75
2022/12/09 00:32:46;;;;;;;131.60;69.07;;;;;;;;;;5035839;28;20033;-75
2022/12/09 00:35:12;;;;;;;104.97;53.30;;;;;;;;;;5037438;28;20091;-76
2022/12/09 00:37:37;;;;;;;105.55;51.53;;;;;;;;;;5025890;28;20368;-75
2022/12/09 00:40:03;;;;;;;123.88;51.08;;;;;;;;;;5027164;28;20052;-77
2022/12/09 00:42:28;;;;;;;134.00;67.22;;;;;;;;;;5035536;28;20041;-74
2022/12/09 00:44:53;;;;;;;91.25;46.53;;;;;;;;;;5035944;28;20017;-76
2022/12/09 00:47:19;;;;;;;120.00;61.13;;;;;;;;;;5034144;28;21075;-77
2022/12/09 00:49:44;;;;;;;120.30;61.58;;;;;;;;;;5033696;28;20065;-74
2022/12/09 00:52:09;;;;;;;63.85;39.85;;;;;;;;;;5037305;28;20033;-75
2022/12/09 00:54:34;;;;;;;55.50;35.53;;;;;;;;;;5035472;28;20104;-75
2022/12/09 00:57:00;;;;;;;91.97;41.80;;;;;;;;;;5028124;28;20017;-75
2022/12/09 00:59:25;;;;;;;58.05;37.10;;;;;;;;;;5036929;28;20037;-75
2022/12/09 01:01:51;;;;;;;69.93;42.03;;;;;;;;;;5037212;28;20021;-75
2022/12/09 01:04:16;;;;;;;86.60;45.72;;;;;;;;;;5038164;28;20024;-75
2022/12/09 01:06:41;;;;;;;66.65;38.20;;;;;;;;;;5034778;28;20029;-75
2022/12/09 01:09:07;;;;;;;87.20;39.40;;;;;;;;;;5035543;28;20043;-76
2022/12/09 01:11:32;;;;;;;67.35;35.65;;;;;;;;;;5030902;28;20053;-76
2022/12/09 01:13:59;;;;;;;69.10;39.25;;;;;;;;;;5027016;28;20037;-74
2022/12/09 01:16:26;;;;;;;166.40;61.33;;;;;;;;;;5028849;28;20087;-75
2022/12/09 01:18:52;;;;;;;97.50;48.97;;;;;;;;;;5030657;28;20119;-77
2022/12/09 01:21:17;;;;;;;92.53;49.53;;;;;;;;;;5037563;28;20033;-77
2022/12/09 01:23:43;;;;;;;77.07;44.40;;;;;;;;;;5039135;28;20195;-75
2022/12/09 01:26:08;;;;;;;142.20;46.58;;;;;;;;;;5041372;28;20038;-76
2022/12/09 01:28:36;;;;;;;141.48;54.38;;;;;;;;;;5038813;28;20030;-76
2022/12/09 01:31:05;;;;;;;63.88;36.40;;;;;;;;;;5040933;28;20029;-75
2022/12/09 01:33:30;;;;;;;61.50;36.25;;;;;;;;;;5028705;28;20139;-74
2022/12/09 01:35:56;;;;;;;81.22;36.67;;;;;;;;;;5040438;28;20108;-76
2022/12/09 01:38:21;;;;;;;49.33;28.98;;;;;;;;;;5039251;28;20044;-76
2022/12/09 01:40:46;;;;;;;51.17;31.20;;;;;;;;;;5037519;28;20022;-76
2022/12/09 01:43:21;;;;;;;42.58;28.02;;;;;;;;;;5038168;28;20037;-76
2022/12/09 01:45:46;;;;;;;42.45;27.70;;;;;;;;;;5038335;28;20088;-77
2022/12/09 01:48:13;;;;;;;47.95;29.67;;;;;;;;;;5038532;28;20029;-76
2022/12/09 01:50:58;;;;;;;51.45;31.08;;;;;;;;;;5038479;28;22686;-75
2022/12/09 01:53:26;;;;;;;41.58;27.08;;;;;;;;;;5033819;28;20053;-77
2022/12/09 01:55:52;;;;;;;47.90;27.80;;;;;;;;;;5041793;28;20046;-75
2022/12/09 01:58:18;;;;;;;53.85;30.80;;;;;;;;;;5036960;28;20016;-76
2022/12/09 02:00:44;;;;;;;50.47;29.42;;;;;;;;;;5039970;28;20033;-76
2022/12/09 02:03:10;;;;;;;57.42;32.00;;;;;;;;;;5040732;28;20486;-75
2022/12/09 02:05:36;;;;;;;45.95;28.95;;;;;;;;;;5038721;28;20057;-76
2022/12/09 02:08:01;;;;;;;50.58;30.20;;;;;;;;;;5037397;28;20029;-76
2022/12/09 02:10:27;;;;;;;43.05;27.98;;;;;;;;;;5033960;28;20053;-78
2022/12/09 02:13:17;;;;;;;50.58;30.55;;;;;;;;;;5034482;28;20147;-76
2022/12/09 02:15:45;;;;;;;41.90;26.17;;;;;;;;;;5040131;28;20136;-76
2022/12/09 02:18:16;;;;;;;48.20;30.13;;;;;;;;;;5039896;28;20444;-76
2022/12/09 02:20:51;;;;;;;40.72;26.60;;;;;;;;;;5038456;28;20025;-76
2022/12/09 02:23:16;;;;;;;64.07;33.42;;;;;;;;;;5039902;28;20060;-76
2022/12/09 02:25:46;;;;;;;68.70;33.60;;;;;;;;;;5039637;28;20060;-76
2022/12/09 02:28:24;;;;;;;45.40;29.05;;;;;;;;;;5038405;28;20498;-75
2022/12/09 02:30:52;;;;;;;47.25;29.20;;;;;;;;;;5040351;28;20032;-75
2022/12/09 02:33:28;;;;;;;54.85;33.58;;;;;;;;;;5038852;28;20456;-77
2022/12/09 02:36:01;;;;;;;64.90;35.15;;;;;;;;;;5035785;28;20096;-77
2022/12/09 02:38:29;;;;;;;58.50;32.08;;;;;;;;;;5029607;28;20339;-77
2022/12/09 02:41:00;;;;;;;68.45;37.72;;;;;;;;;;5028790;28;20049;-77
2022/12/09 02:43:29;;;;;;;103.40;43.03;;;;;;;;;;5038046;28;20434;-77
2022/12/09 02:45:55;;;;;;;77.90;40.67;;;;;;;;;;5038839;28;20029;-75
2022/12/09 02:48:23;;;;;;;161.07;47.75;;;;;;;;;;5038345;28;20036;-80
2022/12/09 02:50:50;;;;;;;172.18;45.55;;;;;;;;;;5035884;28;20040;-76
2022/12/09 02:53:16;;;;;;;79.32;37.10;;;;;;;;;;5039233;28;20037;-76
2022/12/09 02:55:42;;;;;;;64.65;35.90;;;;;;;;;;5038831;28;20021;-78
2022/12/09 02:58:08;;;;;;;293.58;62.15;;;;;;;;;;5036593;28;20084;-77
2022/12/09 03:00:33;;;;;;;90.30;40.72;;;;;;;;;;5037831;28;20076;-77
2022/12/09 03:03:00;;;;;;;138.88;42.75;;;;;;;;;;5038712;28;20037;-77
2022/12/09 03:05:33;;;;;;;60.75;35.58;;;;;;;;;;5037841;28;20043;-77
2022/12/09 03:08:23;;;;;;;60.05;35.20;;;;;;;;;;5038599;28;20052;-76
2022/12/09 03:11:12;;;;;;;147.82;45.95;;;;;;;;;;5039074;28;20115;-78
2022/12/09 03:13:43;;;;;;;109.75;38.70;;;;;;;;;;5030294;28;20059;-75
2022/12/09 03:16:44;;;;;;;63.70;34.40;;;;;;;;;;5037791;28;20071;-76
2022/12/09 03:19:09;;;;;;;49.15;29.73;;;;;;;;;;5010662;28;20126;-77
2022/12/09 03:21:37;;;;;;;47.95;29.92;;;;;;;;;;5034374;28;20033;-76
2022/12/09 03:24:03;;;;;;;41.83;27.75;;;;;;;;;;5036392;28;20170;-75
2022/12/09 03:26:32;;;;;;;49.75;29.98;;;;;;;;;;5039750;28;20154;-76
2022/12/09 03:28:58;;;;;;;38.45;27.50;;;;;;;;;;5037601;28;20639;-77
2022/12/09 03:31:25;;;;;;;52.05;33.15;;;;;;;;;;5036954;28;20100;-76
2022/12/09 03:33:52;;;;;;;60.33;35.38;;;;;;;;;;5037074;28;20445;-77
2022/12/09 03:36:18;;;;;;;52.15;32.25;;;;;;;;;;5016870;28;20044;-76
2022/12/09 03:38:45;;;;;;;42.00;28.38;;;;;;;;;;5037477;28;20017;-76
2022/12/09 03:41:26;;;;;;;48.40;30.48;;;;;;;;;;5035346;28;20203;-77
2022/12/09 03:43:54;;;;;;;55.92;33.88;;;;;;;;;;5033979;28;20021;-76
2022/12/09 03:46:20;;;;;;;41.38;29.35;;;;;;;;;;5024508;28;20043;-76
2022/12/09 03:48:46;;;;;;;50.47;33.40;;;;;;;;;;5033396;28;20026;-77
2022/12/09 03:51:20;;;;;;;47.35;31.65;;;;;;;;;;5037087;28;20021;-77
2022/12/09 03:53:49;;;;;;;43.67;31.73;;;;;;;;;;5033862;28;20453;-77
2022/12/09 03:56:18;;;;;;;39.80;27.55;;;;;;;;;;5037352;28;20025;-77
2022/12/09 03:58:45;;;;;;;31.83;24.60;;;;;;;;;;5036088;28;20029;-76
2022/12/09 04:01:11;;;;;;;33.47;24.27;;;;;;;;;;5037237;28;20083;-76
2022/12/09 04:03:37;;;;;;;42.72;27.58;;;;;;;;;;5035279;28;20033;-77
2022/12/09 04:06:02;;;;;;;49.92;31.65;;;;;;;;;;5025297;28;20029;-77
2022/12/09 04:08:27;;;;;;;38.90;27.00;;;;;;;;;;5035283;28;20035;-77
2022/12/09 04:10:53;;;;;;;55.28;29.33;;;;;;;;;;5035934;28;20103;-78
2022/12/09 04:13:18;;;;;;;53.95;29.58;;;;;;;;;;5036560;28;20032;-77
2022/12/09 04:15:43;;;;;;;67.07;36.63;;;;;;;;;;5032850;28;20029;-77
2022/12/09 04:18:09;;;;;;;100.95;38.22;;;;;;;;;;5029104;28;20041;-77
2022/12/09 04:20:34;;;;;;;57.88;33.00;;;;;;;;;;5036359;28;20024;-76
2022/12/09 04:22:59;;;;;;;53.90;29.52;;;;;;;;;;5035870;28;20041;-77
2022/12/09 04:25:25;;;;;;;58.42;30.33;;;;;;;;;;5029269;28;20035;-77
2022/12/09 04:27:50;;;;;;;51.83;29.48;;;;;;;;;;5035426;28;20356;-77
2022/12/09 04:30:16;;;;;;;67.95;29.52;;;;;;;;;;5038523;28;20111;-76
2022/12/09 04:32:41;;;;;;;49.13;29.10;;;;;;;;;;5034892;28;20914;-76
2022/12/09 04:35:07;;;;;;;60.50;32.38;;;;;;;;;;5034694;28;20420;-77
2022/12/09 04:37:32;;;;;;;53.00;32.28;;;;;;;;;;5037141;28;20033;-77
2022/12/09 04:39:58;;;;;;;57.75;36.35;;;;;;;;;;5037468;28;20436;-76
2022/12/09 04:42:23;;;;;;;310.85;69.38;;;;;;;;;;5036307;28;20103;-76
2022/12/09 04:44:48;;;;;;;80.47;36.17;;;;;;;;;;5036041;28;20274;-76
2022/12/09 04:47:14;;;;;;;65.10;32.72;;;;;;;;;;5036158;28;20033;-76
2022/12/09 04:49:39;;;;;;;40.13;26.80;;;;;;;;;;5036389;28;20400;-75
2022/12/09 04:52:04;;;;;;;43.65;25.60;;;;;;;;;;5033689;28;20747;-77
2022/12/09 04:54:31;;;;;;;43.60;27.95;;;;;;;;;;5022960;28;20032;-76
2022/12/09 04:56:57;;;;;;;50.25;30.38;;;;;;;;;;5021811;28;20033;-76
2022/12/09 04:59:22;;;;;;;58.42;32.88;;;;;;;;;;5025430;28;20440;-76
2022/12/09 05:01:47;;;;;;;85.82;35.63;;;;;;;;;;5030127;28;20467;-78
2022/12/09 05:04:13;;;;;;;56.80;34.17;;;;;;;;;;5033144;28;20117;-76
2022/12/09 05:06:38;;;;;;;84.75;38.13;;;;;;;;;;5031269;28;20065;-74
2022/12/09 05:09:03;;;;;;;244.70;48.35;;;;;;;;;;5039473;28;20116;-73
2022/12/09 05:11:29;;;;;;;70.30;36.30;;;;;;;;;;5036727;28;20068;-74
2022/12/09 05:13:54;;;;;;;79.95;39.38;;;;;;;;;;5039544;28;20037;-75
2022/12/09 05:16:19;;;;;;;69.05;37.63;;;;;;;;;;5040189;28;20036;-75
2022/12/09 05:18:45;;;;;;;157.93;46.53;;;;;;;;;;5040549;28;20032;-75
2022/12/09 05:21:12;;;;;;;161.43;45.80;;;;;;;;;;5038407;28;20036;-75
2022/12/09 05:23:38;;;;;;;111.85;41.25;;;;;;;;;;5031939;28;20041;-77
2022/12/09 05:26:04;;;;;;;71.38;41.00;;;;;;;;;;5038558;28;20371;-74
2022/12/09 05:28:30;;;;;;;56.97;34.08;;;;;;;;;;5038883;28;20436;-72
2022/12/09 05:31:02;;;;;;;123.00;72.40;;;;;;;;;;5040103;28;20108;-75
2022/12/09 05:33:28;;;;;;;61.72;42.92;;;;;;;;;;5036567;28;20036;-76
2022/12/09 05:35:53;;;;;;;45.35;30.98;;;;;;;;;;5039389;28;20448;-73
2022/12/09 05:38:19;;;;;;;49.88;33.10;;;;;;;;;;5038449;28;20060;-74
2022/12/09 05:40:44;;;;;;;60.03;34.97;;;;;;;;;;5039954;28;20033;-77
2022/12/09 05:43:09;;;;;;;68.75;33.58;;;;;;;;;;5042383;28;20040;-79
2022/12/09 05:45:35;;;;;;;90.07;39.85;;;;;;;;;;5029849;28;20024;-74
2022/12/09 05:48:00;;;;;;;162.95;47.33;;;;;;;;;;5030645;28;20058;-76
2022/12/09 05:50:25;;;;;;;91.60;38.28;;;;;;;;;;5034790;28;20024;-74
2022/12/09 05:52:51;;;;;;;185.02;43.75;;;;;;;;;;5030693;28;20055;-77
2022/12/09 05:55:16;;;;;;;198.52;43.08;;;;;;;;;;5037816;28;20083;-75
2022/12/09 05:57:41;;;;;;;275.35;47.53;;;;;;;;;;5035609;28;20520;-77
2022/12/09 06:00:07;;;;;;;136.75;42.35;;;;;;;;;;5032300;28;20076;-79
2022/12/09 06:02:32;;;;;;;89.32;39.13;;;;;;;;;;5022169;28;20078;-76
2022/12/09 06:04:58;;;;;;;158.40;49.47;;;;;;;;;;5008873;28;20030;-74
2022/12/09 06:07:23;;;;;;;80.00;40.28;;;;;;;;;;5020530;28;20116;-75
2022/12/09 06:09:48;;;;;;;70.78;36.45;;;;;;;;;;5019846;28;20033;-77
2022/12/09 06:12:14;;;;;;;326.70;55.35;;;;;;;;;;5024864;28;20377;-77
2022/12/09 06:14:40;;;;;;;124.22;41.53;;;;;;;;;;5035570;28;20094;-77
2022/12/09 06:17:05;;;;;;;101.82;41.95;;;;;;;;;;5037829;28;20048;-75
2022/12/09 06:19:30;;;;;;;130.30;41.17;;;;;;;;;;5036969;28;20029;-76
2022/12/09 06:21:56;;;;;;;242.65;53.35;;;;;;;;;;5035784;28;20452;-77
2022/12/09 06:24:21;;;;;;;107.00;40.58;;;;;;;;;;5037357;28;20089;-75
2022/12/09 06:26:46;;;;;;;90.88;38.17;;;;;;;;;;5036558;28;20025;-75
2022/12/09 06:29:12;;;;;;;49.83;33.25;;;;;;;;;;5035446;28;20022;-77
2022/12/09 06:31:38;;;;;;;43.88;29.75;;;;;;;;;;5035501;28;20867;-79
2022/12/09 06:34:03;;;;;;;42.72;29.90;;;;;;;;;;5035488;28;20111;-76
2022/12/09 06:36:29;;;;;;;43.10;29.70;;;;;;;;;;5039773;28;20367;-75
2022/12/09 06:38:55;;;;;;;75.78;49.78;;;;;;;;;;5037670;28;20029;-74
2022/12/09 06:41:21;;;;;;;102.45;55.00;;;;;;;;;;5037153;28;20025;-75
2022/12/09 06:43:46;;;;;;;131.32;78.20;;;;;;;;;;5040272;28;20033;-76
2022/12/09 06:46:15;;;;;;;155.80;87.90;;;;;;;;;;5038608;28;20037;-77
2022/12/09 06:48:41;;;;;;;252.48;133.57;;;;;;;;;;5037117;28;20017;-76
2022/12/09 06:51:06;;;;;;;292.05;156.63;;;;;;;;;;5037496;28;20020;-76
2022/12/09 06:53:32;;;;;;;235.77;123.75;;;;;;;;;;5035248;28;20037;-76
2022/12/09 06:56:01;;;;;;;304.55;118.50;;;;;;;;;;5037367;28;20031;-75
2022/12/09 06:58:26;;;;;;;202.23;104.20;;;;;;;;;;5036222;28;20036;-73
2022/12/09 07:00:51;;;;;;;120.75;71.88;;;;;;;;;;5031285;28;20029;-75
2022/12/09 07:03:17;;;;;;;108.40;74.57;;;;;;;;;;5023973;28;20669;-77
2022/12/09 07:05:42;;;;;;;187.73;108.00;;;;;;;;;;5024361;28;20106;-76
2022/12/09 07:08:07;;;;;;;229.98;137.75;;;;;;;;;;5025039;28;20020;-76
2022/12/09 07:10:33;;;;;;;193.07;119.32;;;;;;;;;;5023483;28;20133;-75
2022/12/09 07:12:58;;;;;;;87.55;64.80;;;;;;;;;;5023273;28;20037;-73
2022/12/09 07:15:23;;;;;;;114.00;79.20;;;;;;;;;;5023525;28;20104;-77
2022/12/09 07:17:48;;;;;;;216.50;134.68;;;;;;;;;;5035136;28;20061;-77
2022/12/09 07:20:14;;;;;;;170.77;113.85;;;;;;;;;;5036480;28;20033;-76
2022/12/09 07:22:39;;;;;;;129.73;92.63;;;;;;;;;;5035228;28;20036;-76
2022/12/09 07:25:05;;;;;;;100.85;66.00;;;;;;;;;;5037003;28;20388;-76
2022/12/09 07:27:30;;;;;;;100.88;65.72;;;;;;;;;;5038870;28;20103;-76
2022/12/09 07:29:56;;;;;;;87.25;50.10;;;;;;;;;;5035604;28;20051;-76
2022/12/09 07:32:22;;;;;;;100.45;60.25;;;;;;;;;;5038356;28;20083;-76
2022/12/09 07:34:47;;;;;;;53.75;34.88;;;;;;;;;;5034883;28;20033;-76
2022/12/09 07:37:13;;;;;;;45.55;35.78;;;;;;;;;;5036400;28;20021;-75
2022/12/09 07:39:38;;;;;;;66.75;49.78;;;;;;;;;;5038201;28;20116;-76
2022/12/09 07:42:03;;;;;;;81.80;56.28;;;;;;;;;;5036149;28;20029;-76
2022/12/09 07:44:29;;;;;;;85.85;65.18;;;;;;;;;;5035629;28;20037;-76
2022/12/09 07:46:54;;;;;;;90.93;73.40;;;;;;;;;;5023481;28;20039;-77
2022/12/09 07:49:20;;;;;;;54.63;42.17;;;;;;;;;;5024803;28;20029;-76
2022/12/09 07:51:45;;;;;;;85.60;76.35;;;;;;;;;;5025302;28;20029;-76
2022/12/09 07:54:11;;;;;;;52.95;43.75;;;;;;;;;;5023527;28;20044;-76
2022/12/09 07:56:37;;;;;;;168.18;149.70;;;;;;;;;;5024395;28;20084;-76
2022/12/09 07:59:04;;;;;;;80.63;68.70;;;;;;;;;;5023390;28;20021;-76
2022/12/09 08:01:30;;;;;;;48.25;37.42;;;;;;;;;;5031734;28;20107;-77
2022/12/09 08:03:55;;;;;;;41.63;32.97;;;;;;;;;;5034619;28;20616;-78
2022/12/09 08:06:22;;;;;;;64.60;48.58;;;;;;;;;;5032475;28;20411;-75
2022/12/09 08:08:47;;;;;;;70.82;53.85;;;;;;;;;;5027904;28;20116;-74
2022/12/09 08:11:20;;;;;;;93.38;72.68;;;;;;;;;;5030427;28;20147;-74
2022/12/09 08:13:45;;;;;;;56.17;38.42;;;;;;;;;;5052533;28;20021;-74
2022/12/09 08:16:12;;;;;;;42.35;29.98;;;;;;;;;;5052976;28;20020;-74
2022/12/09 08:18:37;;;;;;;46.13;30.80;;;;;;;;;;5052865;28;20021;-74
2022/12/09 08:21:04;;;;;;;45.78;32.72;;;;;;;;;;5053780;28;20451;-74
2022/12/09 08:23:30;;;;;;;158.65;113.85;;;;;;;;;;5052973;28;20470;-74
2022/12/09 08:25:55;;;;;;;128.48;99.25;;;;;;;;;;5053164;28;20025;-74
2022/12/09 08:28:24;;;;;;;101.38;74.85;;;;;;;;;;5040537;28;20025;-75
2022/12/09 08:30:49;;;;;;;100.78;78.35;;;;;;;;;;5032339;28;20057;-74
2022/12/09 08:33:15;;;;;;;97.80;75.68;;;;;;;;;;5029743;28;20064;-77
2022/12/09 08:35:40;;;;;;;188.68;125.05;;;;;;;;;;5021815;28;20080;-77
2022/12/09 08:38:06;;;;;;;91.13;65.78;;;;;;;;;;5022683;28;20075;-77
2022/12/09 08:40:31;;;;;;;60.08;43.33;;;;;;;;;;5021822;28;20079;-76
2022/12/09 08:42:57;;;;;;;97.18;62.83;;;;;;;;;;5021509;28;20329;-76
2022/12/09 08:45:22;;;;;;;108.30;53.95;;;;;;;;;;5024689;28;20339;-76
2022/12/09 08:47:47;;;;;;;202.30;123.75;;;;;;;;;;5024143;28;20060;-76
2022/12/09 08:50:13;;;;;;;177.70;103.53;;;;;;;;;;5025634;28;20029;-77
2022/12/09 08:52:38;;;;;;;107.43;64.85;;;;;;;;;;5026311;28;20508;-77
2022/12/09 08:55:04;;;;;;;69.05;46.78;;;;;;;;;;5034624;28;20500;-77
2022/12/09 08:57:29;;;;;;;87.25;59.85;;;;;;;;;;5039558;28;20025;-76
2022/12/09 08:59:54;;;;;;;70.15;50.95;;;;;;;;;;5035965;28;20443;-75
2022/12/09 09:02:20;;;;;;;74.38;56.28;;;;;;;;;;5035186;28;20432;-74
2022/12/09 09:04:45;;;;;;;67.50;49.03;;;;;;;;;;5038105;28;20464;-75
2022/12/09 09:07:11;;;;;;;64.38;50.13;;;;;;;;;;5031181;28;20025;-74
2022/12/09 09:09:36;;;;;;;76.72;57.05;;;;;;;;;;5031397;28;20442;-76
2022/12/09 09:12:02;;;;;;;47.25;36.63;;;;;;;;;;5038991;28;20037;-78
2022/12/09 09:14:27;;;;;;;30.20;24.35;;;;;;;;;;5035086;28;20033;-75
2022/12/09 09:16:53;;;;;;;33.28;24.50;;;;;;;;;;5034743;28;20017;-77
2022/12/09 09:19:19;;;;;;;69.38;39.25;;;;;;;;;;5037004;28;20048;-76
2022/12/09 09:21:44;;;;;;;41.25;30.75;;;;;;;;;;5025308;28;20033;-76
2022/12/09 09:24:11;;;;;;;45.40;27.00;;;;;;;;;;5035739;28;20507;-75
2022/12/09 09:26:38;;;;;;;78.30;56.30;;;;;;;;;;5036230;28;20164;-75
2022/12/09 09:29:03;;;;;;;122.57;82.45;;;;;;;;;;5037380;28;20079;-76
2022/12/09 09:31:29;;;;;;;94.68;53.47;;;;;;;;;;5035222;28;20033;-76
2022/12/09 09:33:54;;;;;;;47.17;31.92;;;;;;;;;;5035852;28;20040;-76
2022/12/09 09:36:21;;;;;;;49.22;34.78;;;;;;;;;;5037537;28;20029;-75
2022/12/09 09:38:51;;;;;;;50.58;34.97;;;;;;;;;;5036062;28;20346;-75
2022/12/09 09:41:34;;;;;;;200.55;66.45;;;;;;;;;;5031822;28;20024;-75
2022/12/09 09:44:00;;;;;;;387.23;230.13;;;;;;;;;;5036821;28;20432;-75
2022/12/09 09:46:37;;;;;;;228.50;145.05;;;;;;;;;;5038896;28;20059;-77
2022/12/09 09:49:05;;;;;;;145.10;108.78;;;;;;;;;;5039603;28;20099;-76
2022/12/09 09:51:32;;;;;;;101.22;71.47;;;;;;;;;;5038317;28;20344;-74
2022/12/09 09:53:57;;;;;;;201.77;139.00;;;;;;;;;;5039369;28;20570;-77
2022/12/09 09:56:36;;;;;;;76.70;59.45;;;;;;;;;;5041140;28;20136;-77
2022/12/09 09:59:05;;;;;;;63.97;46.10;;;;;;;;;;5039673;28;20031;-76
2022/12/09 10:01:32;;;;;;;114.38;76.47;;;;;;;;;;5039211;28;20021;-76
2022/12/09 10:04:10;;;;;;;113.53;82.35;;;;;;;;;;5041517;28;20037;-75
2022/12/09 10:06:41;;;;;;;89.60;69.70;;;;;;;;;;5036693;28;20029;-75
2022/12/09 10:09:22;;;;;;;99.32;70.25;;;;;;;;;;5029495;28;20040;-76
2022/12/09 10:11:47;;;;;;;56.15;38.88;;;;;;;;;;5025535;28;20081;-78
2022/12/09 10:14:15;;;;;;;105.43;31.98;;;;;;;;;;5025653;28;20056;-77
2022/12/09 10:16:54;;;;;;;137.15;83.18;;;;;;;;;;5026158;28;20028;-75
2022/12/09 10:19:25;;;;;;;65.90;44.70;;;;;;;;;;5025469;28;20079;-75
2022/12/09 10:21:53;;;;;;;91.45;54.08;;;;;;;;;;5026351;28;20088;-78
2022/12/09 10:24:24;;;;;;;59.25;42.05;;;;;;;;;;5027638;28;20020;-76
2022/12/09 10:27:09;;;;;;;48.88;32.88;;;;;;;;;;5025981;28;20037;-75
2022/12/09 10:29:37;;;;;;;57.88;43.83;;;;;;;;;;5017293;28;20455;-76
2022/12/09 10:32:03;;;;;;;65.25;49.83;;;;;;;;;;5024308;28;20029;-75
2022/12/09 10:34:28;;;;;;;44.90;34.38;;;;;;;;;;5025540;28;20040;-75
2022/12/09 10:36:54;;;;;;;62.17;36.05;;;;;;;;;;5025557;28;20026;-77
2022/12/09 10:39:20;;;;;;;68.97;55.67;;;;;;;;;;5025257;28;20025;-75
2022/12/09 10:44:36;;;;;;;58.33;46.20;;;;;;;;;;5026298;28;20044;-78
2022/12/09 10:47:03;;;;;;;56.33;46.78;;;;;;;;;;5024419;28;20021;-75
2022/12/09 10:49:29;;;;;;;50.20;41.05;;;;;;;;;;5026335;28;20040;-76
2022/12/09 10:51:55;;;;;;;55.60;44.80;;;;;;;;;;5026153;28;20040;-77
2022/12/09 10:54:20;;;;;;;60.17;45.72;;;;;;;;;;5005354;28;20474;-76
2022/12/09 10:57:02;;;;;;;38.67;28.88;;;;;;;;;;5025802;28;20451;-75
2022/12/09 10:59:28;;;;;;;32.05;28.08;;;;;;;;;;5026446;28;20060;-74
2022/12/09 11:01:55;;;;;;;32.92;28.95;;;;;;;;;;5023383;28;20075;-75
2022/12/09 11:04:31;;;;;;;34.20;29.50;;;;;;;;;;5024518;28;20035;-75
2022/12/09 11:07:13;;;;;;;29.20;26.00;;;;;;;;;;5025296;28;20056;-75
2022/12/09 11:09:42;;;;;;;24.58;21.75;;;;;;;;;;5024098;28;20057;-75
2022/12/09 11:12:08;;;;;;;;;;;;;;;;;;5026185;28;20076;-75
2022/12/09 11:14:34;;;;;;;31.52;28.00;;;;;;;;;;5007810;28;20039;-75
2022/12/09 11:17:20;;;;;;;33.33;25.52;;;;;;;;;;5037145;28;20029;-76
2022/12/09 11:19:48;;;;;;;48.22;38.85;;;;;;;;;;5032509;28;20036;-75
2022/12/09 11:22:34;;;;;;;32.50;27.02;;;;;;;;;;5004493;28;20474;-74
2022/12/09 11:25:18;;;;;;;31.95;28.50;;;;;;;;;;5034792;28;20127;-76
2022/12/09 11:27:55;;;;;;;92.15;81.40;;;;;;;;;;5035169;28;20421;-76
2022/12/09 11:30:41;;;;;;;78.57;65.90;;;;;;;;;;5034672;28;20658;-75
2022/12/09 11:33:12;;;;;;;131.52;105.75;;;;;;;;;;5034697;28;20033;-76
2022/12/09 11:35:43;;;;;;;78.20;57.83;;;;;;;;;;5039047;28;20020;-75
2022/12/09 11:38:20;;;;;;;67.28;52.15;;;;;;;;;;5036752;28;20040;-75
2022/12/09 11:41:04;;;;;;;46.55;37.10;;;;;;;;;;5036491;28;20444;-76
2022/12/09 11:43:41;;;;;;;139.57;94.97;;;;;;;;;;5039257;28;20025;-76
2022/12/09 11:46:19;;;;;;;77.40;59.60;;;;;;;;;;5036218;28;20029;-76
2022/12/09 11:48:51;;;;;;;48.50;39.10;;;;;;;;;;5035094;28;20102;-75
2022/12/09 11:51:29;;;;;;;32.92;25.85;;;;;;;;;;5037304;28;20132;-75
2022/12/09 11:54:09;;;;;;;53.23;41.67;;;;;;;;;;5040091;28;20045;-75
2022/12/09 11:56:35;;;;;;;38.75;32.00;;;;;;;;;;5036644;28;20033;-76
2022/12/09 11:59:15;;;;;;;69.68;53.05;;;;;;;;;;5040464;28;20036;-75
2022/12/09 12:01:43;;;;;;;81.53;58.17;;;;;;;;;;5037539;28;20104;-76
2022/12/09 12:04:09;;;;;;;41.13;32.47;;;;;;;;;;5037402;28;20047;-75
2022/12/09 12:06:34;;;;;;;38.08;28.85;;;;;;;;;;5037293;28;20108;-75
2022/12/09 12:09:04;;;;;;;40.33;33.53;;;;;;;;;;5036406;28;20104;-76
2022/12/09 12:11:53;;;;;;;44.30;37.88;;;;;;;;;;5034865;28;20147;-75
2022/12/09 12:14:21;;;;;;;55.22;45.63;;;;;;;;;;5034016;28;20502;-75
2022/12/09 12:17:00;;;;;;;46.97;41.55;;;;;;;;;;5036260;28;20021;-76
2022/12/09 12:19:26;;;;;;;44.23;39.60;;;;;;;;;;5034604;28;20029;-74
2022/12/09 12:22:09;;;;;;;45.58;38.10;;;;;;;;;;5037058;28;20302;-76
2022/12/09 12:24:53;;;;;;;30.33;27.02;;;;;;;;;;5036668;28;20025;-75
2022/12/09 12:27:18;;;;;;;30.45;26.73;;;;;;;;;;5037872;28;20024;-75
2022/12/09 12:29:49;;;;;;;29.15;25.52;;;;;;;;;;5036376;28;20087;-77
2022/12/09 12:32:33;;;;;;;34.65;30.23;;;;;;;;;;5036589;28;20415;-76
2022/12/09 12:35:11;;;;;;;32.88;27.95;;;;;;;;;;5035912;28;20440;-76
2022/12/09 12:37:36;;;;;;;28.83;24.75;;;;;;;;;;5036169;28;20021;-74
2022/12/09 12:40:22;;;;;;;33.72;28.17;;;;;;;;;;5035862;28;20021;-75
2022/12/09 12:46:16;;;;;;;28.60;24.00;;;;;;;;;;5035258;28;20329;-76
2022/12/09 12:49:00;;;;;;;26.40;20.60;;;;;;;;;;5035742;28;20118;-75
2022/12/09 12:51:26;;;;;;;27.33;23.00;;;;;;;;;;5034033;28;20444;-75
2022/12/09 12:53:57;;;;;;;27.00;21.17;;;;;;;;;;5033490;28;20055;-75
2022/12/09 12:56:46;;;;;;;27.25;21.75;;;;;;;;;;5036562;28;20032;-76
2022/12/09 12:59:26;;;;;;;24.38;21.05;;;;;;;;;;5025085;28;20037;-75
2022/12/09 13:01:53;;;;;;;28.70;24.85;;;;;;;;;;5036200;28;20037;-76
2022/12/09 13:04:37;;;;;;;34.85;30.98;;;;;;;;;;5033057;28;20455;-75
2022/12/09 13:07:12;;;;;;;57.25;48.78;;;;;;;;;;5036208;28;20021;-77
2022/12/09 13:09:41;;;;;;;43.55;37.53;;;;;;;;;;5035569;28;20350;-75
2022/12/09 13:12:52;;;;;;;38.30;32.13;;;;;;;;;;5035570;28;20049;-75
2022/12/09 13:15:17;;;;;;;29.08;25.95;;;;;;;;;;5035783;28;20052;-75
2022/12/09 13:17:44;;;;;;;34.97;28.50;;;;;;;;;;5035232;28;20083;-76
2022/12/09 13:20:33;;;;;;;43.00;35.90;;;;;;;;;;5038904;28;20024;-75
2022/12/09 13:23:06;;;;;;;44.22;37.42;;;;;;;;;;5030700;28;20049;-75
2022/12/09 13:25:31;;;;;;;43.47;37.20;;;;;;;;;;5037435;28;20017;-74
2022/12/09 13:28:05;;;;;;;57.17;46.72;;;;;;;;;;5039912;28;20029;-77
2022/12/09 13:30:36;;;;;;;53.97;46.38;;;;;;;;;;5038449;28;20402;-74
2022/12/09 13:33:05;;;;;;;52.78;41.25;;;;;;;;;;5039773;28;20033;-75
2022/12/09 13:35:38;;;;;;;39.20;31.88;;;;;;;;;;5037251;28;20062;-75
2022/12/09 13:38:22;;;;;;;41.85;36.88;;;;;;;;;;5038251;28;20025;-74
2022/12/09 13:40:47;;;;;;;46.88;41.30;;;;;;;;;;5037546;28;20060;-75
2022/12/09 13:43:26;;;;;;;52.83;46.03;;;;;;;;;;5036607;28;20134;-75
2022/12/09 13:45:56;;;;;;;58.17;49.45;;;;;;;;;;5038460;28;20025;-74
2022/12/09 13:48:21;;;;;;;73.53;61.90;;;;;;;;;;5037043;28;20021;-75
2022/12/09 13:50:56;;;;;;;74.43;58.63;;;;;;;;;;5038259;28;20043;-77
2022/12/09 13:53:40;;;;;;;81.13;64.00;;;;;;;;;;5026045;28;20440;-75
2022/12/09 13:56:07;;;;;;;64.05;52.33;;;;;;;;;;5026056;28;22069;-76
2022/12/09 13:58:35;;;;;;;54.22;46.85;;;;;;;;;;5036850;28;20027;-75
2022/12/09 14:01:09;;;;;;;52.88;46.55;;;;;;;;;;5033540;28;20029;-74
2022/12/09 14:03:39;;;;;;;56.13;48.53;;;;;;;;;;5037682;28;20060;-74
2022/12/09 14:06:24;;;;;;;159.43;113.70;;;;;;;;;;5038146;28;20024;-76
2022/12/09 14:08:52;;;;;;;82.22;64.78;;;;;;;;;;5036743;28;20042;-75
2022/12/09 14:11:36;;;;;;;152.15;96.22;;;;;;;;;;5037273;28;20060;-74
2022/12/09 14:14:20;;;;;;;192.48;117.15;;;;;;;;;;5036815;28;20413;-75
2022/12/09 14:16:45;;;;;;;164.48;106.68;;;;;;;;;;5036251;28;20099;-72
2022/12/09 14:19:23;;;;;;;164.63;111.65;;;;;;;;;;5033904;28;20029;-72
2022/12/09 14:22:12;;;;;;;195.35;132.38;;;;;;;;;;5030233;28;20033;-75
2022/12/09 14:24:37;;;;;;;141.43;106.63;;;;;;;;;;5032686;28;20028;-74
2022/12/09 14:27:03;;;;;;;126.57;89.80;;;;;;;;;;5038820;28;20047;-73
2022/12/09 14:29:47;;;;;;;132.93;101.30;;;;;;;;;;5036258;28;20140;-73